createdAt,value
2023-01-05T00:04:00.772Z,96129.31
2023-01-05T00:09:03.451Z,96130.59
2023-01-05T00:14:22.823Z,96137.88
2023-01-05T00:19:43.226Z,96116.94
2023-01-05T00:24:46.128Z,96111.19
2023-01-05T00:29:48.723Z,96119.00
2023-01-05T00:34:54.230Z,96093.78
2023-01-05T00:39:56.849Z,96089.53
2023-01-05T00:44:59.439Z,96088.56
2023-01-05T00:50:02.004Z,96087.03
2023-01-05T00:55:04.605Z,96082.00
2023-01-05T01:00:07.531Z,96078.97
2023-01-05T01:05:10.164Z,96081.72
2023-01-05T01:10:13.050Z,96075.06
2023-01-05T01:15:15.716Z,96077.50
2023-01-05T01:20:18.923Z,96076.97
2023-01-05T01:25:21.643Z,96067.81
2023-01-05T01:30:24.784Z,96065.34
2023-01-05T01:35:27.431Z,96076.31
2023-01-05T01:40:30.112Z,96057.03
2023-01-05T01:45:32.845Z,96090.41
2023-01-05T01:50:35.578Z,96060.72
2023-01-05T01:55:38.320Z,96069.84
2023-01-05T02:00:40.944Z,96076.41
2023-01-05T02:05:43.524Z,96063.09
2023-01-05T02:10:46.118Z,96056.09
2023-01-05T02:15:48.706Z,96038.09
2023-01-05T02:20:52.377Z,96013.75
2023-01-05T02:25:55.066Z,95996.06
2023-01-05T02:30:59.744Z,95989.69
2023-01-05T02:36:02.663Z,95992.41
2023-01-05T02:41:05.642Z,95976.94
2023-01-05T02:46:08.659Z,95970.06
2023-01-05T02:51:11.622Z,95990.34
2023-01-05T02:56:14.300Z,96002.06
2023-01-05T03:01:17.390Z,95997.56
2023-01-05T03:06:20.196Z,95983.00
2023-01-05T03:11:40.787Z,95980.28
2023-01-05T03:16:43.711Z,95976.41
2023-01-05T03:22:03.958Z,95966.47
2023-01-05T03:27:24.234Z,95967.00
2023-01-05T03:32:44.749Z,95976.25
2023-01-05T03:37:47.660Z,95965.81
2023-01-05T03:42:50.298Z,95956.53
2023-01-05T03:47:52.883Z,95963.75
2023-01-05T03:52:55.591Z,95943.72
2023-01-05T03:57:58.211Z,95944.66
2023-01-05T04:03:01.068Z,95931.25
2023-01-05T04:08:04.012Z,95930.50
2023-01-05T04:13:06.663Z,95933.75
2023-01-05T04:18:09.307Z,95931.91
2023-01-05T04:23:12.175Z,95938.91
2023-01-05T04:28:14.829Z,95944.66
2023-01-05T04:33:17.413Z,95960.25
2023-01-05T04:38:20.124Z,95965.34
2023-01-05T04:43:23.418Z,95950.31
2023-01-05T04:48:26.125Z,95942.81
2023-01-05T04:53:28.900Z,95943.06
2023-01-05T04:58:31.545Z,95943.38
2023-01-05T05:03:34.267Z,95921.91
2023-01-05T05:08:37.266Z,95936.38
2023-01-05T05:13:39.982Z,95931.59
2023-01-05T05:18:43.031Z,95920.59
2023-01-05T05:23:46.091Z,95922.50
2023-01-05T05:28:49.219Z,95917.91
2023-01-05T05:33:52.352Z,95931.59
2023-01-05T05:38:56.580Z,95939.63
2023-01-05T05:44:01.002Z,95936.41
2023-01-05T05:49:04.728Z,95946.09
2023-01-05T05:54:07.450Z,95939.06
2023-01-05T05:59:10.065Z,95940.94
2023-01-05T06:04:12.724Z,95941.97
2023-01-05T06:09:15.373Z,95949.81
2023-01-05T06:14:18.015Z,95973.94
2023-01-05T06:19:20.614Z,95965.91
2023-01-05T06:24:23.237Z,95971.00
2023-01-05T06:29:25.927Z,95967.00
2023-01-05T06:34:28.554Z,95980.69
2023-01-05T06:39:31.125Z,95980.97
2023-01-05T06:44:33.821Z,95990.34
2023-01-05T06:49:37.507Z,95994.09
2023-01-05T06:54:40.131Z,96000.75
2023-01-05T06:59:42.823Z,96009.91
2023-01-05T07:04:45.473Z,96005.38
2023-01-05T07:09:49.563Z,95997.06
2023-01-05T07:14:57.281Z,95993.31
2023-01-05T07:20:00.547Z,96000.56
2023-01-05T07:25:03.183Z,96014.78
2023-01-05T07:30:05.848Z,96012.13
2023-01-05T07:35:08.486Z,96020.19
2023-01-05T07:40:11.194Z,96016.19
2023-01-05T07:45:13.851Z,96028.31
2023-01-05T07:50:16.542Z,96046.81
2023-01-05T07:55:19.243Z,96043.38
2023-01-05T08:00:21.878Z,96061.06
2023-01-05T08:05:24.487Z,96068.34
2023-01-05T08:10:30.021Z,96072.91
2023-01-05T08:15:32.709Z,96082.06
2023-01-05T08:20:36.347Z,96080.50
2023-01-05T08:25:39.211Z,96098.47
2023-01-05T08:30:41.929Z,96101.28
2023-01-05T08:35:44.535Z,96099.94
2023-01-05T08:40:47.347Z,96108.63
2023-01-05T08:45:50.875Z,96124.03
2023-01-05T08:50:54.905Z,96132.63
2023-01-05T08:55:57.864Z,96160.75
2023-01-05T09:01:00.541Z,96161.97
2023-01-05T09:06:03.508Z,96158.13
2023-01-05T09:11:06.171Z,96173.41
2023-01-05T09:16:08.883Z,96177.34
2023-01-05T09:21:11.708Z,96181.91
2023-01-05T09:26:15.289Z,96175.59
2023-01-05T09:31:17.901Z,96183.34
2023-01-05T09:36:20.924Z,96174.41
2023-01-05T09:41:23.651Z,96174.09
2023-01-05T09:46:26.315Z,96156.53
2023-01-05T09:51:28.969Z,96155.00
2023-01-05T09:57:08.070Z,96163.94
2023-01-05T10:01:54.350Z,96155.91
2023-01-05T10:06:58.153Z,96156.47
2023-01-05T10:12:18.794Z,96160.59
2023-01-05T10:22:44.235Z,96172.97
2023-01-05T10:27:50.687Z,96175.63
2023-01-05T10:33:21.985Z,96170.06
2023-01-05T10:38:20.294Z,96182.13
2023-01-05T10:43:23.445Z,96188.59
2023-01-05T10:48:26.511Z,96193.41
2023-01-05T10:53:29.893Z,96180.00
2023-01-05T10:58:33.218Z,96181.63
2023-01-05T11:04:15.018Z,96180.84
2023-01-05T11:08:59.374Z,96181.19
2023-01-05T11:14:02.069Z,96182.06
2023-01-05T11:19:06.428Z,96174.31
2023-01-05T11:24:10.627Z,96162.50
2023-01-05T11:29:14.405Z,96168.94
2023-01-05T11:34:17.888Z,96174.03
2023-01-05T11:39:21.020Z,96163.78
2023-01-05T11:44:24.214Z,96172.66
2023-01-05T11:49:27.473Z,96178.59
2023-01-05T11:54:30.516Z,96177.53
2023-01-05T11:59:33.633Z,96175.91
2023-01-05T12:04:36.717Z,96161.66
2023-01-05T12:09:40.369Z,96176.19
2023-01-05T12:14:43.941Z,96171.06
2023-01-05T12:19:46.557Z,96173.72
2023-01-05T12:24:49.464Z,96183.16
2023-01-05T12:35:15.010Z,96182.06
2023-01-05T12:40:17.965Z,96171.84
2023-01-05T12:45:20.598Z,96167.59
2023-01-05T12:50:23.261Z,96162.72
2023-01-05T12:55:25.845Z,96166.75
2023-01-05T13:00:28.765Z,96171.09
2023-01-05T13:05:31.497Z,96176.25
2023-01-05T13:10:34.132Z,96173.81
2023-01-05T13:15:40.476Z,96171.13
2023-01-05T13:20:43.816Z,96178.13
2023-01-05T13:25:46.447Z,96177.00
2023-01-05T13:30:49.090Z,96186.09
2023-01-05T13:35:51.835Z,96194.06
2023-01-05T13:40:54.515Z,96211.66
2023-01-05T13:45:57.214Z,96214.25
2023-01-05T13:50:59.907Z,96212.50
2023-01-05T13:56:02.601Z,96219.81
2023-01-05T14:01:05.838Z,96228.78
2023-01-05T14:06:09.836Z,96229.00
2023-01-05T14:11:12.432Z,96227.19
2023-01-05T14:16:15.243Z,96237.69
2023-01-05T14:21:17.913Z,96254.06
2023-01-05T14:26:20.543Z,96251.88
2023-01-05T14:31:27.998Z,96285.31
2023-01-05T14:36:30.673Z,96286.19
2023-01-05T14:41:33.355Z,96309.59
2023-01-05T14:46:36.178Z,96302.25
2023-01-05T14:51:39.867Z,96307.53
2023-01-05T14:56:43.024Z,96300.56
2023-01-05T15:01:46.165Z,96313.53
2023-01-05T15:06:49.574Z,96317.84
2023-01-05T15:11:52.771Z,96322.22
2023-01-05T15:16:55.990Z,96314.75
2023-01-05T15:22:07.954Z,96312.66
2023-01-05T15:27:21.651Z,96319.63
2023-01-05T15:32:24.261Z,96318.59
2023-01-05T15:37:26.859Z,96323.69
2023-01-05T15:42:29.524Z,96326.13
2023-01-05T15:47:32.181Z,96343.47
2023-01-05T15:52:34.828Z,96352.41
2023-01-05T15:57:37.484Z,96354.03
2023-01-05T16:02:40.147Z,96358.06
2023-01-05T16:07:43.178Z,96362.38
2023-01-05T16:12:45.796Z,96350.94
2023-01-05T16:17:48.411Z,96367.34
2023-01-05T16:22:55.152Z,96367.06
2023-01-05T16:28:03.380Z,96370.00
2023-01-05T16:33:11.450Z,96372.03
2023-01-05T16:38:14.159Z,96366.59
2023-01-05T16:43:16.791Z,96370.31
2023-01-05T16:48:19.374Z,96361.78
2023-01-05T16:53:24.439Z,96363.34
2023-01-05T16:58:27.688Z,96379.88
2023-01-05T17:03:31.278Z,96374.50
2023-01-05T17:08:35.958Z,96376.38
2023-01-05T17:13:39.127Z,96378.34
2023-01-05T17:18:42.311Z,96380.44
2023-01-05T17:23:47.048Z,96377.53
2023-01-05T17:28:50.256Z,96383.69
2023-01-05T17:33:53.370Z,96387.50
2023-01-05T17:38:56.436Z,96390.91
2023-01-05T17:43:59.512Z,96397.19
2023-01-05T17:49:02.632Z,96400.88
2023-01-05T17:54:05.705Z,96401.56
2023-01-05T17:59:09.055Z,96398.78
2023-01-05T18:04:12.207Z,96405.38
2023-01-05T18:09:15.342Z,96397.84
2023-01-05T18:14:18.417Z,96396.22
2023-01-05T18:19:21.547Z,96396.78
2023-01-05T18:24:24.650Z,96396.13
2023-01-05T18:29:27.717Z,96396.22
2023-01-05T18:34:32.058Z,96389.72
2023-01-05T18:39:35.255Z,96395.72
2023-01-05T18:44:38.591Z,96395.56
2023-01-05T18:49:44.727Z,96392.16
2023-01-05T18:54:48.109Z,96398.34
2023-01-05T18:59:51.888Z,96400.75
2023-01-05T19:04:55.821Z,96393.59
2023-01-05T19:09:58.971Z,96395.56
2023-01-05T19:15:02.121Z,96386.00
2023-01-05T19:20:09.281Z,96380.88
2023-01-05T19:25:12.392Z,96379.19
2023-01-05T19:30:16.918Z,96390.84
2023-01-05T19:35:20.770Z,96392.78
2023-01-05T19:40:24.392Z,96387.13
2023-01-05T19:45:27.576Z,96384.66
2023-01-05T19:50:30.648Z,96387.44
2023-01-05T19:55:33.757Z,96376.97
2023-01-05T20:00:36.840Z,96368.59
2023-01-05T20:05:40.068Z,96375.16
2023-01-05T20:10:43.189Z,96368.53
2023-01-05T20:15:46.385Z,96371.16
2023-01-05T20:20:49.515Z,96365.41
2023-01-05T20:25:52.752Z,96370.66
2023-01-05T20:30:56.036Z,96365.66
2023-01-05T20:35:59.540Z,96372.53
2023-01-05T20:41:02.597Z,96377.72
2023-01-05T20:46:08.471Z,96360.19
2023-01-05T20:51:11.562Z,96371.97
2023-01-05T20:56:15.981Z,96369.94
2023-01-05T21:01:19.088Z,96379.19
2023-01-05T21:06:22.258Z,96377.31
2023-01-05T21:11:25.968Z,96375.19
2023-01-05T21:16:29.189Z,96387.19
2023-01-05T21:21:33.396Z,96385.88
2023-01-05T21:26:36.480Z,96398.38
2023-01-05T21:31:39.805Z,96397.78
2023-01-05T21:36:45.021Z,96398.38
2023-01-05T21:42:05.676Z,96396.25
2023-01-05T21:47:08.772Z,96398.66
2023-01-05T21:52:37.914Z,96405.59
2023-01-05T21:57:40.985Z,96392.66
2023-01-05T22:02:44.055Z,96403.56
2023-01-05T22:07:47.168Z,96406.06
2023-01-05T22:12:50.283Z,96407.59
2023-01-05T22:17:53.398Z,96404.66
2023-01-05T22:22:56.475Z,96400.63
2023-01-05T22:27:59.521Z,96408.56
2023-01-05T22:33:02.629Z,96403.31
2023-01-05T22:38:05.735Z,96402.25
2023-01-05T22:43:08.847Z,96401.75
2023-01-05T22:48:12.139Z,96396.38
2023-01-05T22:53:15.191Z,96406.78
2023-01-05T22:58:18.333Z,96411.81
2023-01-05T23:03:21.413Z,96408.22
2023-01-05T23:08:24.512Z,96402.38
2023-01-05T23:13:27.552Z,96397.03
2023-01-05T23:18:30.663Z,96385.84
2023-01-05T23:23:33.763Z,96381.53
2023-01-05T23:28:36.932Z,96376.09
2023-01-05T23:33:40.054Z,96381.47
2023-01-05T23:38:43.150Z,96381.13
2023-01-05T23:43:46.263Z,96377.88
2023-01-05T23:48:49.292Z,96378.13
2023-01-05T23:53:52.387Z,96362.81
2023-01-05T23:58:55.431Z,96362.22
